Time;durP1;ratioP1;P1;durP2;ratioP2;P2;SDS_P1;SDS_P2;PMS_P1;PMS_P2;Temp;Humidity;BMP_temperature;BMP_pressure;BME280_temperature;BME280_humidity;BME280_pressure;Samples;Min_cycle;Max_cycle;Signal;HPM_P1;HPM_P2
2023/04/14 00:01:26;;;;;;;2.53;2.33;;;8.30;98.90;;;;;;941201;149;27279;-79
2023/04/14 00:03:53;;;;;;;3.00;2.50;;;8.30;98.80;;;;;;941267;149;27290;-78
2023/04/14 00:06:19;;;;;;;2.90;2.60;;;8.30;98.70;;;;;;943829;148;27302;-79
2023/04/14 00:08:46;;;;;;;2.63;2.43;;;8.30;98.70;;;;;;943117;148;27392;-79
2023/04/14 00:11:12;;;;;;;2.47;2.27;;;8.30;98.60;;;;;;944131;148;27368;-78
2023/04/14 00:13:39;;;;;;;2.73;2.53;;;8.30;98.50;;;;;;924536;150;27968;-79
2023/04/14 00:16:07;;;;;;;2.73;2.53;;;8.30;98.50;;;;;;944461;148;27325;-79
2023/04/14 00:18:33;;;;;;;2.87;2.67;;;8.30;98.40;;;;;;926773;150;27432;-79
2023/04/14 00:21:01;;;;;;;3.00;2.70;;;8.20;98.30;;;;;;940937;149;27340;-78
2023/04/14 00:23:28;;;;;;;5.00;2.60;;;8.20;98.40;;;;;;940960;149;27356;-79
2023/04/14 00:25:55;;;;;;;3.73;3.10;;;8.20;98.40;;;;;;941748;149;27341;-78
2023/04/14 00:28:21;;;;;;;2.93;2.57;;;8.10;98.40;;;;;;943640;148;27337;-79
2023/04/14 00:30:48;;;;;;;2.33;2.13;;;8.10;98.60;;;;;;942940;148;27371;-78
2023/04/14 00:33:14;;;;;;;2.63;2.43;;;8.10;98.70;;;;;;942342;149;27412;-78
2023/04/14 00:35:41;;;;;;;2.97;2.67;;;8.00;98.80;;;;;;943030;148;27386;-78
2023/04/14 00:38:07;;;;;;;2.83;2.63;;;8.00;98.90;;;;;;943358;148;27265;-79
2023/04/14 00:40:34;;;;;;;3.13;2.93;;;8.00;98.90;;;;;;948044;147;27351;-78
2023/04/14 00:43:01;;;;;;;3.50;3.20;;;8.00;99.00;;;;;;944091;149;27373;-78
2023/04/14 00:45:27;;;;;;;2.97;2.77;;;8.00;99.00;;;;;;943973;148;27258;-78
2023/04/14 00:47:54;;;;;;;3.20;2.97;;;8.00;99.10;;;;;;944145;148;27740;-79
2023/04/14 00:50:20;;;;;;;3.37;3.10;;;7.90;99.10;;;;;;928923;149;27464;-79
2023/04/14 00:52:47;;;;;;;3.30;3.00;;;7.90;99.10;;;;;;927825;150;27398;-78
2023/04/14 00:55:13;;;;;;;2.97;2.77;;;7.90;99.20;;;;;;941436;149;27279;-79
2023/04/14 00:57:40;;;;;;;3.07;2.77;;;7.90;99.20;;;;;;941281;149;27375;-79
2023/04/14 01:00:07;;;;;;;3.30;2.77;;;7.90;99.10;;;;;;939760;149;27389;-78
2023/04/14 01:02:33;;;;;;;3.30;3.00;;;7.80;99.10;;;;;;939838;149;27433;-79
2023/04/14 01:05:00;;;;;;;3.50;3.20;;;7.80;99.20;;;;;;937552;151;27374;-79
2023/04/14 01:07:26;;;;;;;3.50;3.20;;;7.70;99.10;;;;;;937169;150;27814;-79
2023/04/14 01:09:53;;;;;;;4.63;3.73;;;7.70;99.10;;;;;;918230;152;27951;-79
2023/04/14 01:12:50;;;;;;;3.60;3.30;;;7.70;99.10;;;;;;918553;153;27343;-79
2023/04/14 01:15:26;;;;;;;3.10;2.90;;;7.60;99.10;;;;;;913506;153;27354;-78
2023/04/14 01:17:56;;;;;;;5.40;3.30;;;7.60;98.80;;;;;;940202;152;27287;-79
2023/04/14 01:20:22;;;;;;;3.50;3.20;;;7.50;98.80;;;;;;937311;150;27497;-79
2023/04/14 01:22:49;;;;;;;3.63;3.33;;;7.50;99.00;;;;;;935663;152;27326;-79
2023/04/14 01:25:30;;;;;;;3.43;3.13;;;7.40;99.00;;;;;;924842;153;27938;-79
2023/04/14 01:28:15;;;;;;;3.60;3.30;;;7.30;99.10;;;;;;927159;151;27399;-79
2023/04/14 01:31:09;;;;;;;3.97;3.57;;;7.30;99.00;;;;;;935441;149;27352;-79
2023/04/14 01:33:35;;;;;;;3.43;3.13;;;7.30;99.00;;;;;;927786;153;27454;-78
2023/04/14 01:36:02;;;;;;;3.23;2.93;;;7.20;98.90;;;;;;926108;153;27422;-78
2023/04/14 01:38:29;;;;;;;4.07;3.10;;;7.10;99.00;;;;;;919618;152;27875;-79
2023/04/14 01:40:58;;;;;;;3.77;3.00;;;7.00;99.10;;;;;;925903;153;27337;-79
2023/04/14 01:43:25;;;;;;;3.40;3.10;;;7.00;99.00;;;;;;927460;153;27475;-79
2023/04/14 01:45:51;;;;;;;3.07;2.67;;;6.90;98.90;;;;;;936672;152;27359;-79
2023/04/14 01:48:18;;;;;;;2.90;2.60;;;6.80;98.80;;;;;;937181;149;27329;-79
2023/04/14 01:50:44;;;;;;;2.97;2.67;;;6.80;98.80;;;;;;937268;149;27322;-79
2023/04/14 01:53:11;;;;;;;2.83;2.33;;;6.70;98.80;;;;;;935859;149;27435;-79
2023/04/14 01:55:37;;;;;;;2.60;2.40;;;6.60;98.70;;;;;;936376;149;27815;-78
2023/04/14 01:58:04;;;;;;;2.87;2.60;;;6.60;98.80;;;;;;937244;149;27434;-79
2023/04/14 02:00:31;;;;;;;7.70;2.70;;;6.50;98.90;;;;;;937338;149;27322;-79
2023/04/14 02:02:57;;;;;;;39.20;6.20;;;6.40;99.00;;;;;;938642;149;27830;-79
2023/04/14 02:05:24;;;;;;;15.00;4.17;;;6.40;99.30;;;;;;938303;149;27443;-78
2023/04/14 02:07:51;;;;;;;11.70;4.07;;;6.30;99.40;;;;;;928833;150;28920;-78
2023/04/14 02:10:17;;;;;;;4.33;2.83;;;6.30;99.60;;;;;;928492;150;27361;-74
2023/04/14 02:12:44;;;;;;;3.90;2.90;;;6.20;99.60;;;;;;929272;150;27338;-74
2023/04/14 02:15:12;;;;;;;2.47;2.27;;;6.20;99.50;;;;;;929387;150;27459;-74
2023/04/14 02:17:37;;;;;;;2.57;2.37;;;6.20;99.50;;;;;;929158;150;27341;-74
2023/04/14 02:20:03;;;;;;;2.63;2.43;;;6.10;99.50;;;;;;928716;150;27899;-74
2023/04/14 02:22:30;;;;;;;2.80;2.60;;;6.10;99.60;;;;;;928590;149;27396;-74
2023/04/14 02:24:56;;;;;;;2.50;2.30;;;6.00;99.50;;;;;;928443;149;27324;-74
2023/04/14 02:27:42;;;;;;;2.40;2.20;;;6.00;99.60;;;;;;928897;149;27377;-74
2023/04/14 02:30:09;;;;;;;2.77;2.20;;;5.90;99.70;;;;;;936440;148;27350;-74
2023/04/14 02:32:35;;;;;;;2.30;2.10;;;5.90;99.70;;;;;;935962;148;27873;-74
2023/04/14 02:35:05;;;;;;;2.67;2.47;;;5.80;99.70;;;;;;921691;150;27392;-74
2023/04/14 02:37:31;;;;;;;3.70;2.67;;;5.80;99.80;;;;;;928739;149;27418;-74
2023/04/14 02:40:01;;;;;;;2.57;2.27;;;5.80;99.80;;;;;;928639;149;27391;-74
2023/04/14 02:42:27;;;;;;;4.13;2.63;;;5.70;99.80;;;;;;929501;149;27478;-74
2023/04/14 02:44:59;;;;;;;2.33;2.20;;;5.60;99.90;;;;;;929551;149;27291;-74
2023/04/14 02:47:28;;;;;;;2.50;2.30;;;5.60;99.90;;;;;;928631;149;27387;-74
2023/04/14 02:49:55;;;;;;;2.60;2.40;;;5.60;99.90;;;;;;937073;148;27955;-74
2023/04/14 02:52:23;;;;;;;2.80;2.60;;;5.60;99.90;;;;;;914983;151;27433;-74
2023/04/14 02:54:48;;;;;;;2.57;2.30;;;5.50;99.90;;;;;;915597;151;27317;-74
2023/04/14 02:57:15;;;;;;;3.33;2.53;;;5.50;99.90;;;;;;924866;150;27408;-74
2023/04/14 02:59:42;;;;;;;2.60;2.43;;;5.50;99.90;;;;;;925305;150;27530;-74
2023/04/14 03:02:09;;;;;;;2.77;2.33;;;5.50;99.90;;;;;;929879;149;27989;-74
2023/04/14 03:04:35;;;;;;;2.40;2.20;;;5.40;99.90;;;;;;941253;149;27399;-74
2023/04/14 03:07:01;;;;;;;2.80;2.60;;;5.40;99.90;;;;;;941521;148;27404;-74
2023/04/14 03:09:28;;;;;;;2.37;2.17;;;5.40;99.90;;;;;;938145;150;27432;-74
2023/04/14 03:11:54;;;;;;;2.43;2.20;;;5.30;99.90;;;;;;938794;150;27369;-74
2023/04/14 03:14:21;;;;;;;3.37;2.40;;;5.30;99.90;;;;;;939129;150;28202;-74
2023/04/14 03:16:47;;;;;;;3.10;2.23;;;5.30;99.90;;;;;;938813;150;27282;-74
2023/04/14 03:19:14;;;;;;;2.70;2.50;;;5.30;99.90;;;;;;937656;150;27837;-74
2023/04/14 03:21:41;;;;;;;3.30;2.60;;;5.20;99.90;;;;;;937852;150;27362;-74
2023/04/14 03:24:07;;;;;;;2.90;2.43;;;5.20;99.90;;;;;;938359;150;27443;-74
2023/04/14 03:26:35;;;;;;;2.97;2.40;;;5.20;99.90;;;;;;938069;150;27431;-74
2023/04/14 03:29:00;;;;;;;5.23;2.40;;;5.20;99.90;;;;;;937629;150;27346;-74
2023/04/14 03:31:29;;;;;;;2.50;2.30;;;5.20;99.90;;;;;;938084;150;27387;-74
2023/04/14 03:33:56;;;;;;;2.73;2.43;;;5.10;99.90;;;;;;937445;150;27467;-74
2023/04/14 03:36:23;;;;;;;3.13;2.67;;;5.10;99.90;;;;;;937661;150;27380;-74
2023/04/14 03:38:49;;;;;;;2.53;2.33;;;5.10;99.90;;;;;;937120;150;27342;-74
2023/04/14 03:41:16;;;;;;;2.77;2.57;;;5.10;99.90;;;;;;938077;150;27319;-74
2023/04/14 03:43:42;;;;;;;2.80;2.47;;;5.10;99.90;;;;;;938635;150;27480;-74
2023/04/14 03:46:09;;;;;;;2.73;2.50;;;5.00;99.90;;;;;;938396;150;27915;-74
2023/04/14 03:48:38;;;;;;;2.37;2.27;;;5.00;99.90;;;;;;939219;150;27884;-74
2023/04/14 03:51:02;;;;;;;2.17;2.07;;;5.00;99.90;;;;;;921688;150;27408;-74
2023/04/14 03:53:29;;;;;;;2.30;2.10;;;5.00;99.90;;;;;;943938;149;27318;-74
2023/04/14 03:55:55;;;;;;;2.47;2.27;;;4.90;99.90;;;;;;944380;149;27341;-74
2023/04/14 03:58:22;;;;;;;1.90;1.80;;;4.90;99.90;;;;;;935517;150;27451;-74
2023/04/14 04:00:48;;;;;;;2.53;2.00;;;4.90;99.90;;;;;;932711;150;27357;-74
2023/04/14 04:03:15;;;;;;;3.83;2.37;;;4.80;99.90;;;;;;938608;150;27487;-74
2023/04/14 04:05:42;;;;;;;2.20;2.10;;;4.80;99.90;;;;;;938457;150;27358;-74
2023/04/14 04:08:08;;;;;;;2.97;2.77;;;4.80;99.90;;;;;;938833;150;27357;-74
2023/04/14 04:10:35;;;;;;;6.03;2.63;;;4.70;99.90;;;;;;940418;150;27403;-74
2023/04/14 04:13:01;;;;;;;2.70;2.50;;;4.70;99.90;;;;;;939042;150;27358;-74
2023/04/14 04:15:28;;;;;;;2.93;2.63;;;4.60;99.90;;;;;;938150;150;27313;-74
2023/04/14 04:17:55;;;;;;;2.57;2.37;;;4.60;99.90;;;;;;938680;150;27443;-74
2023/04/14 04:20:21;;;;;;;2.53;2.33;;;4.60;99.90;;;;;;951114;148;28056;-74
2023/04/14 04:22:48;;;;;;;2.63;2.43;;;4.60;99.90;;;;;;945858;148;27333;-74
2023/04/14 04:25:14;;;;;;;3.90;2.80;;;4.60;99.90;;;;;;943111;148;27310;-74
2023/04/14 04:27:41;;;;;;;3.57;2.90;;;4.60;99.90;;;;;;938970;149;27408;-74
2023/04/14 04:30:08;;;;;;;19.10;5.20;;;4.60;99.90;;;;;;943899;149;27489;-74
2023/04/14 04:32:34;;;;;;;3.07;2.77;;;4.60;99.90;;;;;;943376;148;27477;-74
2023/04/14 04:35:01;;;;;;;12.60;4.60;;;4.70;99.90;;;;;;944001;148;27289;-74
2023/04/14 04:37:27;;;;;;;30.67;6.23;;;4.80;99.90;;;;;;939557;150;27311;-74
2023/04/14 04:39:57;;;;;;;12.63;5.10;;;4.80;99.90;;;;;;942985;149;27373;-74
2023/04/14 04:42:23;;;;;;;35.13;9.50;;;4.90;99.90;;;;;;932274;149;27332;-74
2023/04/14 04:44:50;;;;;;;64.70;10.20;;;5.00;99.90;;;;;;946832;149;27327;-74
2023/04/14 04:47:16;;;;;;;37.23;7.73;;;5.10;99.90;;;;;;944738;149;27405;-74
2023/04/14 04:49:43;;;;;;;23.67;5.07;;;5.20;99.90;;;;;;945166;149;27347;-74
2023/04/14 04:52:09;;;;;;;35.10;6.53;;;5.20;99.90;;;;;;943894;150;28111;-75
2023/04/14 04:54:36;;;;;;;54.30;6.83;;;5.30;99.90;;;;;;939354;148;27840;-74
2023/04/14 04:57:03;;;;;;;35.90;7.43;;;5.40;99.90;;;;;;939964;150;27341;-74
2023/04/14 04:59:29;;;;;;;24.67;7.47;;;5.50;99.90;;;;;;939288;150;27346;-74
2023/04/14 05:01:56;;;;;;;31.17;7.13;;;5.60;99.90;;;;;;939484;150;27458;-74
2023/04/14 05:04:22;;;;;;;42.03;8.27;;;5.60;99.90;;;;;;935985;149;27363;-74
2023/04/14 05:06:49;;;;;;;22.80;5.50;;;5.70;99.90;;;;;;952852;146;27368;-74
2023/04/14 05:09:16;;;;;;;23.73;6.57;;;5.80;99.90;;;;;;934376;148;27339;-74
2023/04/14 05:11:42;;;;;;;30.93;6.23;;;5.90;99.90;;;;;;934817;149;27368;-74
2023/04/14 05:14:09;;;;;;;30.63;7.13;;;6.00;99.90;;;;;;952893;146;27444;-74
2023/04/14 05:16:35;;;;;;;51.87;7.53;;;6.10;99.90;;;;;;952235;146;27811;-74
2023/04/14 05:19:02;;;;;;;27.53;7.67;;;6.20;99.90;;;;;;952767;146;27425;-74
2023/04/14 05:21:29;;;;;;;34.47;7.13;;;6.20;99.90;;;;;;949561;148;27293;-74
2023/04/14 05:23:55;;;;;;;36.93;6.60;;;6.30;99.90;;;;;;953242;146;27371;-74
2023/04/14 05:26:22;;;;;;;34.17;6.50;;;6.40;99.90;;;;;;952826;146;27304;-74
2023/04/14 05:28:48;;;;;;;18.37;5.87;;;6.50;99.90;;;;;;951805;146;27316;-74
2023/04/14 05:31:15;;;;;;;16.73;5.33;;;6.60;99.90;;;;;;948555;148;27313;-74
2023/04/14 05:33:41;;;;;;;26.20;6.83;;;6.70;99.90;;;;;;950715;146;27842;-74
2023/04/14 05:36:08;;;;;;;21.97;5.43;;;6.80;99.90;;;;;;952711;146;27359;-74
2023/04/14 05:38:40;;;;;;;22.90;5.00;;;6.80;99.90;;;;;;952978;147;27887;-74
2023/04/14 05:41:07;;;;;;;20.60;4.97;;;6.90;99.90;;;;;;934907;149;27312;-74
2023/04/14 05:43:34;;;;;;;30.53;5.37;;;7.00;99.90;;;;;;949439;148;27445;-74
2023/04/14 05:46:01;;;;;;;29.00;5.33;;;7.10;99.90;;;;;;948250;148;27371;-74
2023/04/14 05:48:29;;;;;;;20.07;4.27;;;7.20;99.90;;;;;;948280;148;27270;-74
2023/04/14 05:50:53;;;;;;;24.10;5.33;;;7.30;99.90;;;;;;947132;148;27305;-74
2023/04/14 05:53:20;;;;;;;14.80;4.40;;;7.40;99.90;;;;;;958228;146;27326;-74
2023/04/14 05:55:47;;;;;;;8.90;3.97;;;7.50;99.90;;;;;;951229;149;27350;-74
2023/04/14 05:58:13;;;;;;;16.47;4.67;;;7.50;99.90;;;;;;952888;147;27323;-74
2023/04/14 06:00:40;;;;;;;15.33;4.77;;;7.60;99.90;;;;;;949193;150;27385;-74
2023/04/14 06:03:07;;;;;;;14.20;5.13;;;7.70;99.90;;;;;;936009;149;27453;-74
2023/04/14 06:05:33;;;;;;;20.33;4.90;;;7.70;99.90;;;;;;944640;148;27472;-74
2023/04/14 06:07:59;;;;;;;20.80;5.60;;;7.80;99.90;;;;;;941466;152;27359;-73
2023/04/14 06:10:26;;;;;;;19.83;6.00;;;7.90;99.90;;;;;;927572;153;27373;-74
2023/04/14 06:12:52;;;;;;;26.50;6.00;;;8.00;99.90;;;;;;943202;152;27289;-74
2023/04/14 06:15:19;;;;;;;17.23;5.10;;;8.00;99.90;;;;;;926328;154;27308;-73
2023/04/14 06:17:46;;;;;;;21.90;5.50;;;8.10;99.90;;;;;;928566;152;27360;-74
2023/04/14 06:20:13;;;;;;;23.70;6.43;;;8.10;99.90;;;;;;928003;153;27349;-74
2023/04/14 06:22:39;;;;;;;39.03;7.63;;;8.20;99.90;;;;;;928129;153;27354;-74
2023/04/14 06:25:06;;;;;;;27.77;6.10;;;8.30;99.90;;;;;;930471;149;27337;-74
2023/04/14 06:27:32;;;;;;;23.23;5.43;;;8.30;99.90;;;;;;941893;151;27916;-74
2023/04/14 06:30:01;;;;;;;28.73;6.47;;;8.40;99.90;;;;;;933221;151;27456;-74
2023/04/14 06:32:28;;;;;;;34.03;7.13;;;8.50;99.90;;;;;;941146;149;27305;-74
2023/04/14 06:34:54;;;;;;;15.87;5.43;;;8.50;99.90;;;;;;941931;149;27391;-74
2023/04/14 06:37:21;;;;;;;35.53;6.67;;;8.60;99.90;;;;;;941559;149;27349;-74
2023/04/14 06:39:47;;;;;;;17.03;5.03;;;8.60;99.90;;;;;;941380;151;27349;-74
2023/04/14 06:42:14;;;;;;;14.00;5.97;;;8.60;99.90;;;;;;944239;151;27365;-74
2023/04/14 06:44:41;;;;;;;22.33;5.63;;;8.70;99.90;;;;;;933307;152;27259;-74
2023/04/14 06:47:08;;;;;;;22.07;5.77;;;8.70;99.90;;;;;;941705;151;27753;-74
2023/04/14 06:49:35;;;;;;;13.00;5.10;;;8.70;99.90;;;;;;928161;153;27454;-74
2023/04/14 06:52:00;;;;;;;27.97;5.70;;;8.80;99.90;;;;;;945385;149;27297;-74
2023/04/14 06:54:30;;;;;;;10.87;5.57;;;8.80;99.90;;;;;;945942;149;27297;-74
2023/04/14 06:56:53;;;;;;;28.37;6.30;;;8.90;99.90;;;;;;942203;149;27333;-74
2023/04/14 06:59:21;;;;;;;19.97;6.17;;;9.00;99.90;;;;;;928729;153;27385;-74
2023/04/14 07:01:47;;;;;;;33.67;7.73;;;9.00;99.90;;;;;;943815;151;27357;-74
2023/04/14 07:04:14;;;;;;;34.97;7.20;;;9.10;99.90;;;;;;925826;151;27403;-74
2023/04/14 07:06:40;;;;;;;28.00;7.40;;;9.10;99.90;;;;;;930728;152;27357;-74
2023/04/14 07:09:06;;;;;;;23.00;7.50;;;9.20;99.90;;;;;;941420;150;27329;-74
2023/04/14 07:11:33;;;;;;;24.13;7.03;;;9.20;99.90;;;;;;917500;152;27491;-73
2023/04/14 07:14:00;;;;;;;36.53;7.73;;;9.20;99.90;;;;;;941798;152;27258;-74
2023/04/14 07:16:26;;;;;;;28.43;7.00;;;9.30;99.90;;;;;;941372;152;27333;-74
2023/04/14 07:18:53;;;;;;;33.60;7.27;;;9.30;99.90;;;;;;942143;151;27275;-74
2023/04/14 07:21:19;;;;;;;29.57;7.10;;;9.30;99.90;;;;;;941536;152;27500;-74
2023/04/14 07:23:46;;;;;;;18.00;7.00;;;9.30;99.90;;;;;;941182;151;28027;-74
2023/04/14 07:26:12;;;;;;;18.43;6.70;;;9.40;99.90;;;;;;927956;153;27516;-74
2023/04/14 07:28:39;;;;;;;17.60;7.33;;;9.40;99.90;;;;;;941569;152;27302;-74
2023/04/14 07:31:08;;;;;;;16.77;7.60;;;9.50;99.90;;;;;;941335;149;27423;-74
2023/04/14 07:33:35;;;;;;;21.47;7.17;;;9.60;99.90;;;;;;941422;149;27348;-74
2023/04/14 07:36:03;;;;;;;25.83;7.77;;;9.70;99.90;;;;;;941079;149;27433;-74
2023/04/14 07:38:28;;;;;;;26.03;7.43;;;9.80;99.90;;;;;;927937;153;27313;-74
2023/04/14 07:40:55;;;;;;;19.47;6.87;;;9.90;99.90;;;;;;941306;149;27329;-74
2023/04/14 07:43:22;;;;;;;24.73;6.97;;;10.00;99.90;;;;;;943892;149;27328;-74
2023/04/14 07:45:48;;;;;;;16.77;7.00;;;10.10;99.90;;;;;;943303;151;27344;-74
2023/04/14 07:48:18;;;;;;;13.50;7.37;;;10.20;99.90;;;;;;941825;152;27320;-74
2023/04/14 07:50:41;;;;;;;11.97;6.97;;;10.30;99.90;;;;;;941967;149;27306;-74
2023/04/14 07:53:08;;;;;;;13.57;6.83;;;10.40;99.90;;;;;;941711;152;27306;-74
2023/04/14 07:55:34;;;;;;;11.80;7.30;;;10.60;99.90;;;;;;941309;149;27369;-74
2023/04/14 07:58:01;;;;;;;8.33;7.37;;;10.80;99.90;;;;;;929108;151;27475;-74
2023/04/14 08:00:28;;;;;;;10.20;7.10;;;10.90;99.90;;;;;;940254;150;27337;-74
2023/04/14 08:02:54;;;;;;;8.30;6.63;;;11.00;99.90;;;;;;927097;151;27279;-74
2023/04/14 08:05:21;;;;;;;8.80;6.43;;;11.20;99.90;;;;;;942293;151;27755;-74
2023/04/14 08:07:48;;;;;;;10.67;7.10;;;11.30;99.90;;;;;;941804;152;27461;-74
2023/04/14 08:10:14;;;;;;;11.77;7.13;;;11.30;99.90;;;;;;928150;154;27361;-74
2023/04/14 08:12:40;;;;;;;11.37;7.43;;;11.50;99.80;;;;;;944317;148;27329;-74
2023/04/14 08:15:08;;;;;;;16.03;8.33;;;11.50;99.20;;;;;;941423;149;27369;-74
2023/04/14 08:17:34;;;;;;;12.67;7.37;;;11.60;98.70;;;;;;942138;149;27486;-74
2023/04/14 08:20:00;;;;;;;15.27;8.77;;;11.70;98.50;;;;;;942428;149;27344;-74
2023/04/14 08:22:27;;;;;;;13.77;8.33;;;11.80;98.60;;;;;;944006;148;27379;-74
2023/04/14 08:24:53;;;;;;;11.77;7.30;;;11.90;98.30;;;;;;944085;148;27326;-74
2023/04/14 08:27:20;;;;;;;15.10;8.80;;;11.90;97.90;;;;;;940782;149;27365;-74
2023/04/14 08:29:47;;;;;;;10.53;7.87;;;12.00;97.40;;;;;;942081;149;27475;-74
2023/04/14 08:32:13;;;;;;;9.83;7.80;;;12.10;97.30;;;;;;941199;149;27395;-75
2023/04/14 08:34:40;;;;;;;14.70;8.80;;;12.20;97.20;;;;;;944466;148;27374;-75
2023/04/14 08:37:06;;;;;;;14.80;8.07;;;12.20;97.40;;;;;;937837;150;27353;-74
2023/04/14 08:39:33;;;;;;;10.00;7.47;;;12.30;97.30;;;;;;943597;148;27348;-74
2023/04/14 08:42:00;;;;;;;11.60;8.70;;;12.40;97.10;;;;;;944208;148;27892;-74
2023/04/14 08:44:26;;;;;;;14.53;8.80;;;12.50;97.10;;;;;;942924;148;27415;-74
2023/04/14 08:46:53;;;;;;;10.93;8.73;;;12.50;96.70;;;;;;944044;148;27385;-74
2023/04/14 08:49:32;;;;;;;11.13;8.70;;;12.60;96.40;;;;;;949772;147;27335;-74
2023/04/14 08:51:58;;;;;;;10.93;8.33;;;12.70;96.20;;;;;;940677;149;27369;-74
2023/04/14 08:54:24;;;;;;;9.40;8.40;;;12.70;95.50;;;;;;940467;149;27321;-74
2023/04/14 08:56:51;;;;;;;8.97;7.73;;;12.80;95.20;;;;;;940962;149;27336;-74
2023/04/14 08:59:18;;;;;;;11.77;8.37;;;12.80;95.10;;;;;;944616;148;27377;-74
2023/04/14 09:01:45;;;;;;;14.07;8.37;;;12.90;94.90;;;;;;945721;148;27323;-74
2023/04/14 09:04:12;;;;;;;10.00;8.70;;;12.90;94.60;;;;;;932036;149;27478;-74
2023/04/14 09:06:37;;;;;;;9.80;8.37;;;12.90;94.70;;;;;;938384;149;27360;-74
2023/04/14 09:09:07;;;;;;;8.30;7.50;;;13.00;94.60;;;;;;942615;151;27337;-74
2023/04/14 09:11:31;;;;;;;9.80;8.17;;;13.00;94.60;;;;;;929028;151;27435;-74
2023/04/14 09:14:00;;;;;;;11.60;8.83;;;13.10;94.70;;;;;;928872;151;27372;-74
2023/04/14 09:16:27;;;;;;;8.95;7.55;;;13.10;95.10;;;;;;928588;153;27427;-74
2023/04/14 09:18:53;;;;;;;8.90;8.00;;;13.30;95.10;;;;;;930552;153;27428;-74
2023/04/14 09:21:20;;;;;;;9.93;8.10;;;13.40;95.60;;;;;;927827;151;27380;-74
2023/04/14 09:23:46;;;;;;;11.73;8.85;;;13.60;96.30;;;;;;923246;152;27407;-74
2023/04/14 09:26:13;;;;;;;9.23;8.28;;;13.80;96.10;;;;;;935493;150;27349;-74
2023/04/14 09:28:40;;;;;;;10.63;9.45;;;14.00;95.80;;;;;;941835;152;27336;-74
2023/04/14 09:31:07;;;;;;;11.70;10.08;;;14.20;95.50;;;;;;941518;149;27673;-74
2023/04/14 09:33:33;;;;;;;12.45;9.28;;;14.40;94.50;;;;;;928569;152;27380;-74
2023/04/14 09:35:59;;;;;;;9.90;8.68;;;14.50;93.90;;;;;;930077;154;27374;-74
2023/04/14 09:38:35;;;;;;;8.95;7.75;;;14.70;93.70;;;;;;928965;153;27428;-74
2023/04/14 09:41:01;;;;;;;8.53;7.67;;;14.90;93.40;;;;;;941279;151;27345;-74
2023/04/14 09:43:28;;;;;;;8.93;8.03;;;15.00;93.20;;;;;;925439;152;27334;-74
2023/04/14 09:45:55;;;;;;;7.80;7.08;;;15.20;92.80;;;;;;941916;151;27359;-74
2023/04/14 09:48:21;;;;;;;10.30;7.45;;;15.40;92.60;;;;;;941223;152;27423;-74
2023/04/14 09:51:00;;;;;;;8.85;7.95;;;15.50;92.20;;;;;;928054;153;27365;-75
2023/04/14 09:53:28;;;;;;;7.83;7.03;;;15.70;92.50;;;;;;928016;153;27338;-75
2023/04/14 09:55:55;;;;;;;8.28;7.47;;;16.00;92.20;;;;;;928629;152;27380;-74
2023/04/14 09:58:22;;;;;;;7.92;7.22;;;16.20;92.40;;;;;;928691;153;27361;-74
2023/04/14 10:00:51;;;;;;;9.38;8.38;;;16.50;91.90;;;;;;929154;154;27324;-75
2023/04/14 10:03:39;;;;;;;8.38;7.42;;;16.70;91.20;;;;;;931571;154;27350;-75
2023/04/14 10:06:06;;;;;;;9.18;7.97;;;16.90;90.70;;;;;;930446;154;27323;-74
2023/04/14 10:08:38;;;;;;;8.40;7.60;;;17.20;89.70;;;;;;926790;153;27411;-74
2023/04/14 10:11:22;;;;;;;8.00;7.05;;;17.40;88.60;;;;;;921308;152;27507;-74
2023/04/14 10:13:48;;;;;;;8.18;7.37;;;17.60;87.80;;;;;;936631;153;27338;-74
2023/04/14 10:16:15;;;;;;;7.50;6.80;;;17.80;87.30;;;;;;937251;151;27358;-74
2023/04/14 10:18:42;;;;;;;8.78;7.70;;;18.00;85.60;;;;;;936880;153;27343;-74
2023/04/14 10:21:08;;;;;;;8.08;7.35;;;18.20;83.80;;;;;;928870;153;27322;-74
2023/04/14 10:23:38;;;;;;;7.50;6.80;;;18.30;82.30;;;;;;929135;153;27348;-74
2023/04/14 10:26:05;;;;;;;8.05;7.25;;;18.50;80.90;;;;;;928895;151;27397;-79
2023/04/14 10:28:31;;;;;;;7.75;7.05;;;18.50;79.80;;;;;;918877;153;27330;-80
2023/04/14 10:30:57;;;;;;;7.33;6.62;;;18.50;78.70;;;;;;926473;152;27338;-80
2023/04/14 10:33:24;;;;;;;7.55;6.80;;;18.50;77.40;;;;;;923566;152;27383;-80
2023/04/14 10:35:51;;;;;;;7.60;6.90;;;18.50;76.50;;;;;;937898;152;27404;-80
2023/04/14 10:38:17;;;;;;;8.05;7.20;;;18.50;76.30;;;;;;929356;153;27392;-80
2023/04/14 10:40:46;;;;;;;8.60;7.70;;;18.40;75.80;;;;;;929552;153;27302;-80
2023/04/14 10:43:13;;;;;;;8.05;6.72;;;18.40;75.60;;;;;;936772;152;27774;-80
2023/04/14 10:45:52;;;;;;;6.05;5.35;;;18.30;75.40;;;;;;925744;152;27371;-80
2023/04/14 10:48:18;;;;;;;7.12;6.28;;;18.30;75.30;;;;;;928004;153;27430;-80
2023/04/14 10:50:47;;;;;;;7.50;5.80;;;18.20;75.10;;;;;;929349;151;27342;-80
2023/04/14 10:53:14;;;;;;;6.00;5.40;;;18.10;75.00;;;;;;929534;151;27427;-80
2023/04/14 10:55:41;;;;;;;6.62;5.72;;;18.10;74.70;;;;;;937640;149;27304;-80
2023/04/14 10:58:07;;;;;;;6.47;5.87;;;18.00;74.80;;;;;;937471;149;27459;-80
2023/04/14 11:00:34;;;;;;;6.37;5.72;;;18.00;74.70;;;;;;936616;151;27423;-80
2023/04/14 11:03:12;;;;;;;6.15;5.60;;;17.90;74.50;;;;;;935970;152;27300;-80
2023/04/14 11:05:42;;;;;;;7.12;6.42;;;17.90;74.80;;;;;;921159;155;27374;-80
2023/04/14 11:08:14;;;;;;;7.62;5.97;;;17.80;75.10;;;;;;931235;149;27540;-80
2023/04/14 11:10:43;;;;;;;6.85;6.15;;;17.90;75.10;;;;;;923603;149;27379;-81
2023/04/14 11:13:13;;;;;;;7.65;6.90;;;17.80;75.20;;;;;;927296;150;27331;-80
2023/04/14 11:15:48;;;;;;;8.95;6.85;;;17.80;75.10;;;;;;939678;150;27365;-80
2023/04/14 11:18:15;;;;;;;6.95;6.25;;;17.80;75.10;;;;;;943522;148;27490;-80
2023/04/14 11:20:42;;;;;;;6.40;5.80;;;17.80;75.20;;;;;;943474;148;27351;-80
2023/04/14 11:23:09;;;;;;;6.85;6.15;;;17.90;75.40;;;;;;943688;148;27396;-81
2023/04/14 11:25:35;;;;;;;6.17;5.55;;;17.90;74.90;;;;;;944245;148;27332;-81
2023/04/14 11:28:02;;;;;;;5.92;4.83;;;17.90;74.90;;;;;;942237;148;27350;-81
2023/04/14 11:30:28;;;;;;;5.05;4.50;;;17.90;74.30;;;;;;950428;147;27354;-81
2023/04/14 11:32:56;;;;;;;5.95;4.30;;;17.90;73.70;;;;;;934591;151;27358;-81
2023/04/14 11:35:21;;;;;;;3.95;3.58;;;17.90;73.30;;;;;;928191;150;27478;-81
2023/04/14 11:37:48;;;;;;;4.65;3.85;;;17.90;72.70;;;;;;941657;149;27458;-81
2023/04/14 11:40:14;;;;;;;4.72;3.60;;;18.00;72.30;;;;;;936824;149;27368;-81
2023/04/14 11:42:45;;;;;;;3.85;2.83;;;18.00;72.00;;;;;;941389;149;27345;-81
2023/04/14 11:45:10;;;;;;;6.42;3.58;;;18.10;71.80;;;;;;940374;149;27442;-81
2023/04/14 11:47:37;;;;;;;3.72;3.27;;;18.10;71.60;;;;;;927085;150;27347;-81
2023/04/14 11:50:04;;;;;;;3.50;2.72;;;18.20;71.40;;;;;;944367;148;27341;-81
2023/04/14 11:52:31;;;;;;;6.17;3.52;;;18.20;70.80;;;;;;942887;148;27301;-81
2023/04/14 11:54:57;;;;;;;4.67;2.85;;;18.30;71.50;;;;;;943081;148;27908;-81
2023/04/14 11:57:24;;;;;;;5.22;3.27;;;18.30;70.40;;;;;;944435;148;27295;-82
2023/04/14 11:59:50;;;;;;;3.95;3.60;;;18.30;70.80;;;;;;943595;148;27341;-81
2023/04/14 12:02:17;;;;;;;4.75;3.30;;;18.40;69.80;;;;;;939742;150;27360;-81
2023/04/14 12:04:47;;;;;;;3.17;2.62;;;18.40;69.10;;;;;;947254;147;27340;-81
2023/04/14 12:07:13;;;;;;;3.10;2.75;;;18.40;68.40;;;;;;939024;149;27299;-81
2023/04/14 12:09:43;;;;;;;2.70;2.30;;;18.40;67.50;;;;;;929785;150;27437;-81
2023/04/14 12:12:12;;;;;;;4.22;2.55;;;18.40;67.70;;;;;;925751;150;27540;-81
2023/04/14 12:14:38;;;;;;;2.98;2.58;;;18.40;67.50;;;;;;926628;150;27414;-81
2023/04/14 12:17:05;;;;;;;4.97;2.60;;;18.40;67.70;;;;;;923543;150;27380;-81
2023/04/14 12:19:32;;;;;;;2.95;2.58;;;18.40;67.80;;;;;;926140;150;27339;-81
2023/04/14 12:21:58;;;;;;;3.25;2.20;;;18.40;67.80;;;;;;926598;150;27439;-81
2023/04/14 12:24:25;;;;;;;3.85;2.40;;;18.40;67.60;;;;;;924993;150;28034;-81
2023/04/14 12:26:51;;;;;;;3.33;2.30;;;18.40;66.90;;;;;;925847;150;27283;-81
2023/04/14 12:29:18;;;;;;;3.55;2.05;;;18.40;66.50;;;;;;926338;150;27869;-81
2023/04/14 12:31:44;;;;;;;5.75;2.60;;;18.50;65.80;;;;;;924260;150;27337;-81
2023/04/14 12:34:13;;;;;;;1.90;1.67;;;18.50;65.30;;;;;;924200;150;27360;-81
2023/04/14 12:36:40;;;;;;;2.92;2.08;;;18.50;65.00;;;;;;924681;150;27357;-81
2023/04/14 12:39:07;;;;;;;5.15;2.67;;;18.50;64.40;;;;;;925447;150;27326;-81
2023/04/14 12:41:34;;;;;;;3.62;1.90;;;18.50;64.20;;;;;;924812;150;27349;-81
2023/04/14 12:44:00;;;;;;;2.83;2.08;;;18.50;63.90;;;;;;924263;150;27370;-81
2023/04/14 12:46:27;;;;;;;3.30;1.80;;;18.40;63.70;;;;;;910301;153;27349;-81
2023/04/14 12:48:53;;;;;;;3.35;1.67;;;18.40;63.40;;;;;;926645;150;27316;-81